Time;durP1;ratioP1;P1;durP2;ratioP2;P2;SDS_P1;SDS_P2;PMS_P1;PMS_P2;Temp;Humidity;BMP_temperature;BMP_pressure;BME280_temperature;BME280_humidity;BME280_pressure;Samples;Min_cycle;Max_cycle;Signal;HPM_P1;HPM_P2
2021/04/13 00:00:26;;;;;;;5.28;4.35;;;;;;;;;;5109240;28;20294;-63
2021/04/13 00:02:54;;;;;;;4.50;4.05;;;;;;;;;;5096727;28;20196;-63
2021/04/13 00:05:28;;;;;;;4.10;3.70;;;;;;;;;;5094290;28;20231;-62
2021/04/13 00:07:55;;;;;;;5.85;3.83;;;;;;;;;;5093217;28;20695;-63
2021/04/13 00:10:25;;;;;;;6.95;3.85;;;;;;;;;;5094399;28;20204;-63
2021/04/13 00:12:52;;;;;;;4.93;4.35;;;;;;;;;;5093583;28;20207;-63
2021/04/13 00:15:24;;;;;;;5.18;4.65;;;;;;;;;;5093555;28;20247;-63
2021/04/13 00:17:50;;;;;;;5.03;3.95;;;;;;;;;;5093312;28;20633;-63
2021/04/13 00:20:21;;;;;;;5.28;4.10;;;;;;;;;;5093479;28;20207;-63
2021/04/13 00:22:49;;;;;;;4.95;3.60;;;;;;;;;;5094267;28;20184;-62
2021/04/13 00:25:23;;;;;;;11.07;4.38;;;;;;;;;;5100361;28;20279;-61
2021/04/13 00:27:49;;;;;;;4.60;4.20;;;;;;;;;;5099021;28;20204;-63
2021/04/13 00:30:17;;;;;;;6.00;4.90;;;;;;;;;;5097483;28;20695;-63
2021/04/13 00:32:48;;;;;;;5.05;4.35;;;;;;;;;;5097653;28;20272;-63
2021/04/13 00:35:19;;;;;;;7.85;4.85;;;;;;;;;;5097544;28;20637;-62
2021/04/13 00:37:46;;;;;;;6.78;4.45;;;;;;;;;;5097694;28;20188;-62
2021/04/13 00:40:24;;;;;;;4.90;3.85;;;;;;;;;;5097770;28;20203;-62
2021/04/13 00:42:52;;;;;;;6.85;4.55;;;;;;;;;;5097353;28;20279;-62
2021/04/13 00:45:21;;;;;;;5.45;3.95;;;;;;;;;;5097705;28;20227;-62
2021/04/13 00:47:49;;;;;;;6.80;4.32;;;;;;;;;;5097218;28;20199;-61
2021/04/13 00:50:19;;;;;;;4.43;3.72;;;;;;;;;;5097180;28;20204;-62
2021/04/13 00:52:49;;;;;;;5.05;4.43;;;;;;;;;;5097444;28;20688;-62
2021/04/13 00:55:18;;;;;;;5.30;4.72;;;;;;;;;;5101183;28;20219;-63
2021/04/13 00:57:46;;;;;;;5.68;4.10;;;;;;;;;;5106336;28;20627;-62
2021/04/13 01:00:18;;;;;;;6.22;4.47;;;;;;;;;;5104553;28;20265;-63
2021/04/13 01:02:44;;;;;;;6.40;4.53;;;;;;;;;;5104379;28;20187;-62
2021/04/13 01:05:16;;;;;;;6.43;4.65;;;;;;;;;;5103859;28;20224;-63
2021/04/13 01:07:44;;;;;;;6.18;4.68;;;;;;;;;;5103366;28;20204;-62
2021/04/13 01:10:14;;;;;;;6.28;4.65;;;;;;;;;;5097730;28;20658;-62
2021/04/13 01:12:42;;;;;;;6.13;5.13;;;;;;;;;;5097563;28;20573;-64
2021/04/13 01:15:10;;;;;;;8.35;5.03;;;;;;;;;;5096755;28;20719;-63
2021/04/13 01:17:37;;;;;;;5.05;4.50;;;;;;;;;;5096961;28;20204;-63
2021/04/13 01:20:10;;;;;;;6.50;5.20;;;;;;;;;;5096453;28;20663;-63
2021/04/13 01:22:41;;;;;;;6.60;4.70;;;;;;;;;;5096478;28;20238;-63
2021/04/13 01:25:10;;;;;;;6.50;4.40;;;;;;;;;;5096496;28;20224;-62
2021/04/13 01:27:38;;;;;;;5.78;4.70;;;;;;;;;;5096080;28;20204;-63
2021/04/13 01:30:08;;;;;;;9.00;5.32;;;;;;;;;;5096373;28;20200;-61
2021/04/13 01:32:34;;;;;;;6.22;5.07;;;;;;;;;;5096397;28;20196;-62
2021/04/13 01:35:05;;;;;;;5.93;4.97;;;;;;;;;;5095262;28;20223;-62
2021/04/13 01:37:46;;;;;;;6.82;5.10;;;;;;;;;;5096098;28;20655;-62
2021/04/13 01:40:21;;;;;;;8.02;5.80;;;;;;;;;;5095883;28;20717;-63
2021/04/13 01:42:51;;;;;;;7.38;5.80;;;;;;;;;;5096294;28;20237;-62
2021/04/13 01:45:20;;;;;;;7.50;6.05;;;;;;;;;;5096096;28;20216;-63
2021/04/13 01:47:47;;;;;;;7.45;5.63;;;;;;;;;;5096027;28;20203;-63
2021/04/13 01:50:15;;;;;;;10.95;6.68;;;;;;;;;;5095948;28;20254;-62
2021/04/13 01:52:43;;;;;;;7.80;6.28;;;;;;;;;;5095876;28;20234;-62
2021/04/13 01:55:12;;;;;;;10.88;6.93;;;;;;;;;;5095943;28;20220;-63
2021/04/13 01:57:43;;;;;;;7.13;6.35;;;;;;;;;;5095992;28;20214;-62
2021/04/13 02:00:14;;;;;;;10.80;6.13;;;;;;;;;;5096138;28;20308;-62
2021/04/13 02:02:45;;;;;;;7.43;5.97;;;;;;;;;;5095965;28;20189;-61
2021/04/13 02:05:14;;;;;;;7.03;5.53;;;;;;;;;;5095540;28;20256;-62
2021/04/13 02:07:48;;;;;;;7.95;5.63;;;;;;;;;;5097804;28;20218;-62
2021/04/13 02:10:22;;;;;;;6.72;5.95;;;;;;;;;;5100087;28;20191;-62
2021/04/13 02:12:49;;;;;;;8.60;5.85;;;;;;;;;;5097566;28;20208;-61
2021/04/13 02:15:30;;;;;;;9.15;6.57;;;;;;;;;;5096153;28;20595;-62
2021/04/13 02:17:58;;;;;;;7.68;6.00;;;;;;;;;;5095873;28;20237;-63
2021/04/13 02:20:28;;;;;;;7.60;5.95;;;;;;;;;;5095717;28;20596;-62
2021/04/13 02:22:55;;;;;;;7.30;5.40;;;;;;;;;;5095541;28;20287;-63
2021/04/13 02:25:25;;;;;;;8.35;5.80;;;;;;;;;;5095475;28;20605;-62
2021/04/13 02:27:53;;;;;;;7.13;5.85;;;;;;;;;;5095474;28;20200;-62
2021/04/13 02:30:27;;;;;;;6.55;5.38;;;;;;;;;;5095552;28;20256;-63
2021/04/13 02:32:55;;;;;;;8.50;6.30;;;;;;;;;;5095200;28;20242;-61
2021/04/13 02:35:23;;;;;;;10.60;6.25;;;;;;;;;;5095262;28;20219;-62
2021/04/13 02:37:51;;;;;;;9.75;4.82;;;;;;;;;;5094868;28;20201;-63
2021/04/13 02:40:20;;;;;;;6.15;5.20;;;;;;;;;;5095284;28;20233;-63
2021/04/13 02:42:47;;;;;;;5.80;4.78;;;;;;;;;;5094876;28;20200;-63
2021/04/13 02:45:24;;;;;;;6.55;5.32;;;;;;;;;;5095039;28;20232;-62
2021/04/13 02:47:53;;;;;;;7.18;4.82;;;;;;;;;;5093963;28;20603;-62
2021/04/13 02:50:21;;;;;;;9.02;4.15;;;;;;;;;;5095657;28;20207;-62
2021/04/13 02:52:50;;;;;;;7.10;4.20;;;;;;;;;;5095051;28;20207;-62
2021/04/13 02:55:21;;;;;;;4.78;3.90;;;;;;;;;;5094512;28;20224;-63
2021/04/13 02:57:48;;;;;;;8.68;4.30;;;;;;;;;;5094977;28;20195;-62
2021/04/13 03:00:19;;;;;;;4.03;3.00;;;;;;;;;;5094857;28;20196;-62
2021/04/13 03:02:47;;;;;;;6.10;3.35;;;;;;;;;;5095397;28;20192;-62
2021/04/13 03:05:16;;;;;;;9.05;3.38;;;;;;;;;;5094875;28;20220;-62
2021/04/13 03:07:44;;;;;;;5.22;3.45;;;;;;;;;;5094771;28;20215;-62
2021/04/13 03:10:12;;;;;;;7.88;4.03;;;;;;;;;;5094977;28;20204;-62
2021/04/13 03:12:40;;;;;;;3.95;3.15;;;;;;;;;;5094508;28;20200;-63
2021/04/13 03:15:08;;;;;;;4.30;3.40;;;;;;;;;;5094347;28;20224;-62
2021/04/13 03:17:36;;;;;;;4.38;3.13;;;;;;;;;;5094709;28;20196;-61
2021/04/13 03:20:04;;;;;;;4.78;3.20;;;;;;;;;;5094123;28;20208;-62
2021/04/13 03:22:32;;;;;;;5.90;4.07;;;;;;;;;;5094471;28;20196;-63
2021/04/13 03:25:00;;;;;;;6.82;3.70;;;;;;;;;;5094498;28;20220;-62
2021/04/13 03:27:29;;;;;;;5.13;3.88;;;;;;;;;;5094589;28;20669;-62
2021/04/13 03:29:59;;;;;;;8.60;4.10;;;;;;;;;;5093729;28;20255;-63
2021/04/13 03:32:27;;;;;;;8.25;4.22;;;;;;;;;;5094325;28;20207;-62
2021/04/13 03:34:54;;;;;;;5.30;3.83;;;;;;;;;;5093864;28;20721;-62
2021/04/13 03:37:22;;;;;;;12.73;3.92;;;;;;;;;;5093874;28;20231;-63
2021/04/13 03:39:49;;;;;;;5.03;3.70;;;;;;;;;;5094495;28;20196;-63
2021/04/13 03:42:18;;;;;;;9.27;4.35;;;;;;;;;;5093958;28;20196;-62
2021/04/13 03:44:46;;;;;;;11.07;6.50;;;;;;;;;;5093930;28;20228;-62
2021/04/13 03:47:14;;;;;;;10.75;3.70;;;;;;;;;;5094046;28;20204;-63
2021/04/13 03:49:42;;;;;;;9.32;4.93;;;;;;;;;;5093879;28;20215;-61
2021/04/13 03:52:10;;;;;;;6.78;4.65;;;;;;;;;;5093616;28;20552;-62
2021/04/13 03:54:38;;;;;;;6.43;4.32;;;;;;;;;;5093425;28;20692;-62
2021/04/13 03:57:05;;;;;;;6.15;4.32;;;;;;;;;;5093767;28;20211;-63
2021/04/13 03:59:34;;;;;;;7.78;3.85;;;;;;;;;;5093537;28;20253;-62
2021/04/13 04:02:01;;;;;;;8.68;4.38;;;;;;;;;;5093915;28;20204;-62
2021/04/13 04:08:01;;;;;;;8.75;4.65;;;;;;;;;;5112118;27;20551;-62
2021/04/13 04:10:32;;;;;;;6.10;4.20;;;;;;;;;;5112433;28;20257;-61
2021/04/13 04:13:00;;;;;;;6.53;4.75;;;;;;;;;;5111760;28;20226;-63
2021/04/13 04:15:28;;;;;;;5.90;4.25;;;;;;;;;;5111693;28;20219;-62
2021/04/13 04:17:54;;;;;;;7.85;5.18;;;;;;;;;;5111623;28;20565;-63
2021/04/13 04:20:31;;;;;;;8.07;4.32;;;;;;;;;;5111093;28;20667;-62
2021/04/13 04:22:59;;;;;;;8.15;5.20;;;;;;;;;;5111101;28;20180;-63
2021/04/13 04:25:32;;;;;;;7.95;4.57;;;;;;;;;;5111057;28;20233;-62
2021/04/13 04:28:01;;;;;;;6.85;4.53;;;;;;;;;;5110961;28;20176;-63
2021/04/13 04:30:29;;;;;;;6.80;4.47;;;;;;;;;;5110855;28;20204;-63
2021/04/13 04:32:56;;;;;;;6.50;5.00;;;;;;;;;;5111343;28;20219;-63
2021/04/13 04:35:40;;;;;;;7.30;4.88;;;;;;;;;;5111051;28;20232;-63
2021/04/13 04:38:12;;;;;;;6.97;4.68;;;;;;;;;;5110766;28;20667;-63
2021/04/13 04:40:52;;;;;;;7.72;5.43;;;;;;;;;;5111070;28;20552;-62
2021/04/13 04:43:21;;;;;;;9.18;5.57;;;;;;;;;;5110379;28;20640;-63
2021/04/13 04:45:53;;;;;;;7.38;5.35;;;;;;;;;;5110568;28;20234;-63
2021/04/13 04:48:30;;;;;;;9.13;4.82;;;;;;;;;;5110449;28;20256;-63
2021/04/13 04:50:58;;;;;;;6.70;4.55;;;;;;;;;;5110539;28;20184;-63
2021/04/13 04:53:26;;;;;;;9.13;5.50;;;;;;;;;;5110604;28;20202;-63
2021/04/13 04:55:54;;;;;;;9.93;5.13;;;;;;;;;;5110471;28;20224;-63
2021/04/13 04:58:21;;;;;;;11.20;6.30;;;;;;;;;;5110521;28;20199;-63
2021/04/13 05:00:48;;;;;;;8.40;4.65;;;;;;;;;;5110216;28;20225;-62
2021/04/13 05:03:15;;;;;;;5.68;5.05;;;;;;;;;;5110521;28;20200;-62
2021/04/13 05:05:42;;;;;;;8.85;5.38;;;;;;;;;;5111652;28;20228;-62
2021/04/13 05:08:09;;;;;;;8.15;5.20;;;;;;;;;;5110819;28;20636;-62
2021/04/13 05:10:37;;;;;;;9.40;5.78;;;;;;;;;;5110771;28;20203;-63
2021/04/13 05:13:04;;;;;;;13.10;5.68;;;;;;;;;;5110504;28;20250;-62
2021/04/13 05:15:31;;;;;;;6.50;4.97;;;;;;;;;;5110335;28;20230;-63
2021/04/13 05:17:57;;;;;;;5.55;4.70;;;;;;;;;;5104694;28;20200;-63
2021/04/13 05:20:24;;;;;;;12.57;5.20;;;;;;;;;;5096730;28;20200;-63
2021/04/13 05:22:51;;;;;;;5.95;4.50;;;;;;;;;;5096376;28;20196;-63
2021/04/13 05:25:18;;;;;;;6.85;5.10;;;;;;;;;;5096615;28;20219;-63
2021/04/13 05:27:46;;;;;;;16.83;5.80;;;;;;;;;;5096876;28;20293;-63
2021/04/13 05:30:14;;;;;;;10.02;5.45;;;;;;;;;;5096230;28;20207;-62
2021/04/13 05:32:41;;;;;;;8.98;5.38;;;;;;;;;;5096248;28;20211;-62
2021/04/13 05:35:08;;;;;;;8.63;4.88;;;;;;;;;;5096140;28;20216;-63
2021/04/13 05:37:35;;;;;;;9.25;4.88;;;;;;;;;;5095567;28;20192;-62
2021/04/13 05:40:03;;;;;;;9.93;4.93;;;;;;;;;;5096084;28;20208;-63
2021/04/13 05:42:31;;;;;;;6.07;4.50;;;;;;;;;;5095892;28;20584;-62
2021/04/13 05:44:59;;;;;;;10.85;5.40;;;;;;;;;;5096063;28;20220;-62
2021/04/13 05:47:27;;;;;;;8.52;5.47;;;;;;;;;;5095912;28;20216;-62
2021/04/13 05:49:54;;;;;;;5.20;4.10;;;;;;;;;;5096409;28;20196;-63
2021/04/13 05:52:21;;;;;;;7.07;5.28;;;;;;;;;;5096529;28;20200;-62
2021/04/13 05:54:47;;;;;;;7.60;5.22;;;;;;;;;;5095819;28;20220;-64
2021/04/13 05:57:15;;;;;;;8.55;4.57;;;;;;;;;;5095906;28;20196;-63
2021/04/13 05:59:42;;;;;;;10.43;6.05;;;;;;;;;;5095886;28;20620;-63
2021/04/13 06:02:12;;;;;;;8.25;5.50;;;;;;;;;;5095877;28;20226;-64
2021/04/13 06:04:39;;;;;;;8.07;4.57;;;;;;;;;;5095600;28;20227;-63
2021/04/13 06:07:06;;;;;;;8.48;5.07;;;;;;;;;;5095378;28;20216;-63
2021/04/13 06:09:32;;;;;;;7.43;5.70;;;;;;;;;;5096008;28;20208;-63
2021/04/13 06:12:00;;;;;;;8.00;4.45;;;;;;;;;;5095954;28;20200;-63
2021/04/13 06:14:28;;;;;;;5.72;4.78;;;;;;;;;;5095923;28;20303;-62
2021/04/13 06:16:55;;;;;;;9.57;4.60;;;;;;;;;;5095831;28;20250;-62
2021/04/13 06:19:23;;;;;;;6.15;4.50;;;;;;;;;;5102389;28;20200;-63
2021/04/13 06:21:51;;;;;;;9.85;5.10;;;;;;;;;;5102692;28;20204;-63
2021/04/13 06:24:18;;;;;;;5.57;4.90;;;;;;;;;;5101337;28;20249;-63
2021/04/13 06:26:45;;;;;;;7.55;4.10;;;;;;;;;;5099231;28;20216;-63
2021/04/13 06:29:12;;;;;;;8.63;3.97;;;;;;;;;;5095563;28;20212;-63
2021/04/13 06:31:40;;;;;;;7.18;3.75;;;;;;;;;;5096245;28;20563;-61
2021/04/13 06:34:07;;;;;;;8.57;4.35;;;;;;;;;;5095545;28;20227;-63
2021/04/13 06:36:36;;;;;;;9.38;4.38;;;;;;;;;;5095401;28;20219;-62
2021/04/13 06:39:04;;;;;;;8.75;3.70;;;;;;;;;;5095424;28;20211;-63
2021/04/13 06:41:36;;;;;;;11.00;4.30;;;;;;;;;;5094863;28;20687;-61
2021/04/13 06:44:16;;;;;;;5.95;3.90;;;;;;;;;;5095172;28;20645;-62
2021/04/13 06:46:47;;;;;;;7.72;4.68;;;;;;;;;;5095076;28;20207;-62
2021/04/13 06:49:25;;;;;;;6.70;3.05;;;;;;;;;;5094849;28;20195;-62
2021/04/13 06:51:59;;;;;;;8.82;3.45;;;;;;;;;;5094808;28;20184;-63
2021/04/13 06:54:36;;;;;;;5.43;3.10;;;;;;;;;;5095435;28;20239;-63
2021/04/13 06:57:08;;;;;;;5.90;3.83;;;;;;;;;;5095803;28;20180;-61
2021/04/13 06:59:51;;;;;;;7.40;3.05;;;;;;;;;;5096414;28;20275;-63
2021/04/13 07:02:21;;;;;;;6.50;3.20;;;;;;;;;;5098785;28;20596;-63
2021/04/13 07:04:52;;;;;;;6.28;4.32;;;;;;;;;;5104293;28;20224;-62
2021/04/13 07:07:23;;;;;;;7.88;4.18;;;;;;;;;;5098520;28;20227;-63
2021/04/13 07:09:56;;;;;;;7.80;4.22;;;;;;;;;;5102307;28;20188;-62
2021/04/13 07:12:26;;;;;;;8.00;3.45;;;;;;;;;;5107163;28;20645;-62
2021/04/13 07:14:55;;;;;;;5.68;3.50;;;;;;;;;;5107025;28;20231;-62
2021/04/13 07:17:26;;;;;;;4.82;3.20;;;;;;;;;;5106116;28;20201;-62
2021/04/13 07:19:57;;;;;;;5.00;3.33;;;;;;;;;;5108168;28;20184;-63
2021/04/13 07:22:26;;;;;;;16.73;4.40;;;;;;;;;;5105325;28;20184;-63
2021/04/13 07:24:54;;;;;;;7.70;3.40;;;;;;;;;;5104193;28;20216;-64
2021/04/13 07:27:22;;;;;;;9.38;3.20;;;;;;;;;;5103020;28;20216;-64
2021/04/13 07:29:52;;;;;;;5.60;3.30;;;;;;;;;;5102326;28;20221;-63
2021/04/13 07:32:20;;;;;;;7.30;4.18;;;;;;;;;;5099942;28;20211;-63
2021/04/13 07:34:48;;;;;;;9.15;3.22;;;;;;;;;;5102506;28;20224;-64
2021/04/13 07:37:17;;;;;;;3.60;2.67;;;;;;;;;;5103597;28;20687;-62
2021/04/13 07:39:46;;;;;;;6.22;3.25;;;;;;;;;;5104606;28;20215;-63
2021/04/13 07:42:16;;;;;;;7.68;2.58;;;;;;;;;;5102160;28;20196;-63
2021/04/13 07:44:45;;;;;;;8.10;2.90;;;;;;;;;;5105603;28;20220;-64
2021/04/13 07:47:28;;;;;;;6.43;3.70;;;;;;;;;;5107744;28;20220;-63
2021/04/13 07:49:56;;;;;;;8.25;3.25;;;;;;;;;;5102030;28;20668;-61
2021/04/13 07:52:38;;;;;;;3.28;2.47;;;;;;;;;;5101624;28;20196;-61
2021/04/13 07:55:09;;;;;;;4.90;2.60;;;;;;;;;;5100964;28;20227;-63
2021/04/13 07:57:40;;;;;;;11.30;3.55;;;;;;;;;;5102518;28;20187;-63
2021/04/13 08:00:09;;;;;;;4.75;3.22;;;;;;;;;;5101985;28;20212;-64
2021/04/13 08:02:36;;;;;;;25.60;2.72;;;;;;;;;;5101149;28;20730;-64
2021/04/13 08:05:04;;;;;;;8.57;2.78;;;;;;;;;;5101568;28;20727;-63
2021/04/13 08:07:32;;;;;;;8.10;2.85;;;;;;;;;;5101975;28;20231;-63
2021/04/13 08:10:14;;;;;;;11.02;3.35;;;;;;;;;;5102142;28;20200;-63
2021/04/13 08:12:52;;;;;;;2.90;2.55;;;;;;;;;;5100147;28;20195;-63
2021/04/13 08:15:21;;;;;;;10.73;3.55;;;;;;;;;;5102614;28;20267;-63
2021/04/13 08:18:01;;;;;;;8.68;2.55;;;;;;;;;;5101938;28;20203;-64
2021/04/13 08:20:29;;;;;;;8.13;3.10;;;;;;;;;;5102562;28;20184;-65
2021/04/13 08:22:58;;;;;;;4.95;2.05;;;;;;;;;;5100471;28;20203;-63
2021/04/13 08:25:33;;;;;;;5.45;2.67;;;;;;;;;;5100862;28;20227;-64
2021/04/13 08:28:06;;;;;;;6.55;2.42;;;;;;;;;;5101512;28;20227;-63
2021/04/13 08:30:45;;;;;;;6.20;2.70;;;;;;;;;;5103233;28;20272;-62
2021/04/13 08:33:20;;;;;;;4.85;2.58;;;;;;;;;;5099896;28;20252;-63
2021/04/13 08:36:02;;;;;;;13.90;3.33;;;;;;;;;;5100248;28;20223;-63
2021/04/13 08:38:30;;;;;;;9.38;2.72;;;;;;;;;;5099417;28;20241;-62
2021/04/13 08:41:06;;;;;;;4.82;2.40;;;;;;;;;;5099472;28;20204;-63
2021/04/13 08:43:38;;;;;;;4.30;2.70;;;;;;;;;;5098797;28;20210;-63
2021/04/13 08:46:11;;;;;;;6.68;2.40;;;;;;;;;;5099781;28;20298;-63
2021/04/13 08:48:39;;;;;;;4.68;2.70;;;;;;;;;;5098486;28;20180;-62
2021/04/13 08:51:08;;;;;;;7.28;2.17;;;;;;;;;;5095882;28;20196;-63
2021/04/13 08:53:39;;;;;;;5.47;2.33;;;;;;;;;;5096260;28;20672;-64
2021/04/13 08:56:07;;;;;;;6.25;2.10;;;;;;;;;;5097545;28;20273;-63
2021/04/13 08:58:43;;;;;;;5.88;1.90;;;;;;;;;;5097362;28;20201;-63
2021/04/13 09:01:31;;;;;;;4.15;1.50;;;;;;;;;;5103524;28;20572;-64
2021/04/13 09:03:58;;;;;;;5.35;1.98;;;;;;;;;;5107084;28;20206;-63
2021/04/13 09:06:31;;;;;;;5.93;1.95;;;;;;;;;;5107187;28;20224;-63
2021/04/13 09:09:02;;;;;;;9.73;2.20;;;;;;;;;;5106975;28;20184;-63
2021/04/13 09:11:31;;;;;;;5.13;2.20;;;;;;;;;;5106139;28;20184;-62
2021/04/13 09:14:03;;;;;;;10.93;2.40;;;;;;;;;;5102260;28;20204;-63
2021/04/13 09:16:32;;;;;;;5.57;2.40;;;;;;;;;;5104164;28;20220;-62
2021/04/13 09:19:02;;;;;;;7.15;2.50;;;;;;;;;;5104072;28;20208;-63
2021/04/13 09:21:37;;;;;;;4.93;1.88;;;;;;;;;;5111261;28;20207;-63
2021/04/13 09:24:07;;;;;;;8.30;2.50;;;;;;;;;;5110620;28;20208;-64
2021/04/13 09:26:42;;;;;;;3.92;2.50;;;;;;;;;;5105898;28;20228;-64
2021/04/13 09:29:12;;;;;;;6.68;1.95;;;;;;;;;;5106725;28;20184;-64
2021/04/13 09:31:45;;;;;;;6.65;1.70;;;;;;;;;;5109708;28;20696;-63
2021/04/13 09:34:14;;;;;;;10.18;1.90;;;;;;;;;;5105474;28;20183;-62
2021/04/13 09:37:01;;;;;;;5.00;2.00;;;;;;;;;;5098098;28;20232;-63
2021/04/13 09:39:44;;;;;;;4.07;2.03;;;;;;;;;;5097541;28;20185;-63
2021/04/13 09:42:20;;;;;;;4.43;1.80;;;;;;;;;;5097034;28;20192;-63
2021/04/13 09:44:59;;;;;;;4.90;1.95;;;;;;;;;;5098195;28;20300;-64
2021/04/13 09:47:33;;;;;;;6.35;1.60;;;;;;;;;;5098246;28;20204;-63
2021/04/13 09:50:04;;;;;;;4.00;1.95;;;;;;;;;;5097923;28;20184;-63
2021/04/13 09:52:34;;;;;;;5.28;2.50;;;;;;;;;;5099007;28;20207;-63
2021/04/13 09:55:05;;;;;;;4.53;2.00;;;;;;;;;;5100370;28;20231;-64
2021/04/13 09:57:51;;;;;;;7.07;2.70;;;;;;;;;;5099953;28;20177;-64
2021/04/13 10:00:32;;;;;;;7.35;2.05;;;;;;;;;;5099248;28;20230;-63
2021/04/13 10:03:11;;;;;;;4.55;1.60;;;;;;;;;;5098354;28;20191;-64
2021/04/13 10:05:38;;;;;;;4.05;1.90;;;;;;;;;;5097512;28;20220;-64
2021/04/13 10:08:10;;;;;;;3.45;1.80;;;;;;;;;;5097682;28;20207;-64
2021/04/13 10:10:39;;;;;;;2.65;1.50;;;;;;;;;;5098301;28;20557;-63
2021/04/13 10:13:26;;;;;;;5.65;1.58;;;;;;;;;;5097928;28;20197;-64
2021/04/13 10:16:08;;;;;;;5.75;1.88;;;;;;;;;;5098083;28;20219;-63
2021/04/13 10:18:53;;;;;;;3.30;1.75;;;;;;;;;;5095492;28;20207;-63
2021/04/13 10:21:32;;;;;;;4.72;1.70;;;;;;;;;;5097573;28;20257;-63
2021/04/13 10:24:13;;;;;;;5.95;1.48;;;;;;;;;;5097554;28;20189;-62
2021/04/13 10:27:01;;;;;;;3.45;1.73;;;;;;;;;;5095804;28;20220;-63
2021/04/13 10:29:42;;;;;;;6.10;1.55;;;;;;;;;;5091280;28;20253;-63
2021/04/13 10:32:31;;;;;;;5.63;1.83;;;;;;;;;;5097098;28;20196;-63
2021/04/13 10:35:13;;;;;;;4.25;1.55;;;;;;;;;;5092361;28;20220;-63
2021/04/13 10:38:08;;;;;;;2.75;1.45;;;;;;;;;;5097073;28;20551;-63
2021/04/13 10:40:53;;;;;;;4.25;1.60;;;;;;;;;;5097241;28;20234;-63
2021/04/13 10:43:40;;;;;;;4.90;1.30;;;;;;;;;;5095990;28;20621;-64
2021/04/13 10:46:15;;;;;;;3.35;1.50;;;;;;;;;;5096204;28;20250;-63
2021/04/13 10:48:54;;;;;;;2.78;1.30;;;;;;;;;;5096227;28;20176;-63
2021/04/13 10:51:51;;;;;;;4.63;1.80;;;;;;;;;;5095898;28;20215;-63
2021/04/13 10:54:36;;;;;;;5.93;1.55;;;;;;;;;;5102999;28;20185;-63
2021/04/13 10:57:18;;;;;;;3.72;1.40;;;;;;;;;;5104060;28;20180;-63
2021/04/13 11:00:07;;;;;;;2.65;1.60;;;;;;;;;;5106012;28;20281;-63
2021/04/13 11:02:52;;;;;;;4.43;2.33;;;;;;;;;;5100684;28;20273;-61
2021/04/13 11:05:30;;;;;;;4.55;1.83;;;;;;;;;;5100286;28;20223;-63
2021/04/13 11:08:16;;;;;;;3.05;1.70;;;;;;;;;;5097985;28;20579;-62
2021/04/13 11:11:00;;;;;;;4.30;1.50;;;;;;;;;;5098541;28;20199;-63
2021/04/13 11:13:44;;;;;;;5.20;2.10;;;;;;;;;;5066942;28;20720;-62
2021/04/13 11:16:29;;;;;;;5.32;1.90;;;;;;;;;;5095621;28;20234;-64
2021/04/13 11:19:14;;;;;;;5.18;1.85;;;;;;;;;;5097530;28;20180;-64
2021/04/13 11:21:55;;;;;;;6.83;2.13;;;;;;;;;;5097475;28;20188;-64
2021/04/13 11:24:36;;;;;;;6.03;2.10;;;;;;;;;;5094680;28;20797;-63
2021/04/13 11:27:36;;;;;;;7.95;2.30;;;;;;;;;;5094849;28;20263;-65
2021/04/13 11:30:26;;;;;;;9.82;2.15;;;;;;;;;;5094945;28;20211;-64
2021/04/13 11:33:08;;;;;;;3.40;1.85;;;;;;;;;;5037449;28;20301;-64
2021/04/13 11:35:36;;;;;;;3.65;1.75;;;;;;;;;;5094047;28;20228;-63
2021/04/13 11:38:21;;;;;;;4.22;1.88;;;;;;;;;;5094110;28;20218;-62
2021/04/13 11:41:09;;;;;;;6.50;2.00;;;;;;;;;;5094387;28;20204;-63
2021/04/13 11:43:38;;;;;;;12.77;1.75;;;;;;;;;;5089160;28;20211;-63
2021/04/13 11:46:05;;;;;;;4.50;1.30;;;;;;;;;;5094101;28;20223;-63
2021/04/13 11:48:36;;;;;;;4.45;1.90;;;;;;;;;;5093691;28;20699;-63
2021/04/13 11:51:05;;;;;;;2.55;1.25;;;;;;;;;;5093951;28;20641;-63
2021/04/13 11:53:34;;;;;;;5.22;1.60;;;;;;;;;;5094469;28;20540;-63
2021/04/13 11:56:01;;;;;;;3.80;1.75;;;;;;;;;;5094123;28;20268;-63
2021/04/13 11:58:31;;;;;;;3.87;1.80;;;;;;;;;;5093957;28;20249;-63
2021/04/13 12:01:13;;;;;;;4.00;1.70;;;;;;;;;;5093911;28;20452;-62
2021/04/13 12:03:42;;;;;;;4.80;1.70;;;;;;;;;;5093308;28;20442;-63
2021/04/13 12:06:12;;;;;;;5.80;1.57;;;;;;;;;;5093266;28;20991;-63
2021/04/13 12:08:41;;;;;;;2.93;1.70;;;;;;;;;;5093373;28;20523;-63
2021/04/13 12:11:08;;;;;;;4.20;1.30;;;;;;;;;;5093283;28;20533;-62
2021/04/13 12:13:36;;;;;;;5.73;1.90;;;;;;;;;;5093152;28;20450;-63
2021/04/13 12:16:04;;;;;;;5.07;2.33;;;;;;;;;;5093559;28;20462;-63
2021/04/13 12:18:49;;;;;;;3.33;1.63;;;;;;;;;;5093600;28;20442;-63
2021/04/13 12:21:48;;;;;;;3.83;1.90;;;;;;;;;;5093338;28;20817;-63
2021/04/13 12:24:44;;;;;;;3.63;1.80;;;;;;;;;;5031437;28;20444;-63
2021/04/13 12:27:29;;;;;;;7.07;1.90;;;;;;;;;;5031269;28;20480;-63
2021/04/13 12:30:26;;;;;;;4.00;1.53;;;;;;;;;;5083846;28;20529;-63
2021/04/13 12:32:53;;;;;;;1.97;1.37;;;;;;;;;;5097766;28;20435;-63
2021/04/13 12:35:35;;;;;;;3.03;1.30;;;;;;;;;;5097667;28;20457;-63
2021/04/13 12:38:02;;;;;;;6.03;2.13;;;;;;;;;;5097298;28;20449;-64
2021/04/13 12:40:31;;;;;;;4.50;2.23;;;;;;;;;;5097879;28;20442;-63
2021/04/13 12:43:18;;;;;;;4.30;1.73;;;;;;;;;;5097491;28;20449;-63
2021/04/13 12:45:46;;;;;;;6.10;1.93;;;;;;;;;;5098319;28;20461;-63
2021/04/13 12:48:17;;;;;;;3.73;1.83;;;;;;;;;;5098102;28;20470;-62
2021/04/13 12:50:45;;;;;;;5.43;1.70;;;;;;;;;;5097568;28;20542;-62
2021/04/13 12:53:14;;;;;;;2.27;1.40;;;;;;;;;;5097605;28;20832;-64
2021/04/13 12:55:41;;;;;;;3.80;1.50;;;;;;;;;;5097983;28;20479;-64
2021/04/13 12:58:10;;;;;;;4.15;1.90;;;;;;;;;;5097424;28;20204;-63
2021/04/13 13:00:41;;;;;;;2.42;1.30;;;;;;;;;;5097795;28;20207;-64
2021/04/13 13:03:19;;;;;;;4.10;1.55;;;;;;;;;;5097813;28;20249;-63
2021/04/13 13:05:47;;;;;;;4.18;1.40;;;;;;;;;;5097210;28;20226;-64
2021/04/13 13:08:16;;;;;;;3.03;1.63;;;;;;;;;;5097595;28;20204;-63
2021/04/13 13:10:45;;;;;;;4.00;1.40;;;;;;;;;;5097716;28;20207;-64
2021/04/13 13:13:14;;;;;;;1.98;1.38;;;;;;;;;;5096703;28;20204;-62
2021/04/13 13:15:42;;;;;;;4.63;1.27;;;;;;;;;;5096775;28;20226;-64
2021/04/13 13:18:18;;;;;;;5.15;1.63;;;;;;;;;;5096948;28;20199;-63
2021/04/13 13:20:45;;;;;;;3.63;1.85;;;;;;;;;;5097509;28;20239;-63
2021/04/13 13:23:25;;;;;;;2.70;1.50;;;;;;;;;;5097684;28;20512;-65
2021/04/13 13:25:52;;;;;;;5.95;2.13;;;;;;;;;;5097635;28;20215;-64
2021/04/13 13:28:19;;;;;;;1.83;1.35;;;;;;;;;;5097092;28;20212;-63
2021/04/13 13:30:49;;;;;;;1.95;1.15;;;;;;;;;;5097110;28;20749;-62
2021/04/13 13:33:17;;;;;;;5.38;1.48;;;;;;;;;;5097036;28;20204;-62
2021/04/13 13:35:43;;;;;;;2.75;1.52;;;;;;;;;;5096771;28;20275;-63
2021/04/13 13:38:12;;;;;;;8.18;1.67;;;;;;;;;;5097205;28;20258;-63
2021/04/13 13:40:40;;;;;;;3.47;1.90;;;;;;;;;;5096687;28;20200;-63
2021/04/13 13:43:08;;;;;;;6.10;2.03;;;;;;;;;;5096109;28;20200;-64
2021/04/13 13:45:37;;;;;;;3.03;1.50;;;;;;;;;;5096116;28;20216;-63
2021/04/13 13:48:15;;;;;;;2.00;1.60;;;;;;;;;;5096878;28;20219;-64
2021/04/13 13:50:41;;;;;;;1.55;1.25;;;;;;;;;;5096636;28;20188;-64
2021/04/13 13:53:17;;;;;;;1.63;1.50;;;;;;;;;;5096969;28;20204;-64
2021/04/13 13:55:55;;;;;;;3.03;1.23;;;;;;;;;;5096109;28;20223;-63
2021/04/13 13:58:23;;;;;;;2.97;1.60;;;;;;;;;;5096303;28;20180;-63
2021/04/13 14:00:50;;;;;;;2.90;1.73;;;;;;;;;;5096128;28;20548;-63
2021/04/13 14:03:19;;;;;;;2.08;1.60;;;;;;;;;;5095983;28;20660;-62
2021/04/13 14:05:48;;;;;;;3.55;1.70;;;;;;;;;;5095430;28;20223;-63
2021/04/13 14:08:16;;;;;;;5.47;1.80;;;;;;;;;;5096371;28;20208;-63
2021/04/13 14:10:43;;;;;;;3.33;1.75;;;;;;;;;;5096339;28;20196;-64
2021/04/13 14:13:15;;;;;;;6.00;1.70;;;;;;;;;;5095434;28;20671;-63
2021/04/13 14:15:42;;;;;;;3.60;1.48;;;;;;;;;;5096014;28;20707;-64
2021/04/13 14:18:26;;;;;;;4.53;1.80;;;;;;;;;;5095831;28;20193;-64
2021/04/13 14:21:07;;;;;;;4.15;1.23;;;;;;;;;;5095665;28;20191;-62
2021/04/13 14:23:34;;;;;;;5.70;1.60;;;;;;;;;;5093754;28;20207;-63
2021/04/13 14:26:10;;;;;;;2.22;1.52;;;;;;;;;;5095621;28;20644;-65
2021/04/13 14:28:37;;;;;;;1.60;1.05;;;;;;;;;;5095595;28;20204;-62
2021/04/13 14:31:13;;;;;;;1.70;1.10;;;;;;;;;;5095011;28;20197;-62
2021/04/13 14:33:41;;;;;;;2.25;1.05;;;;;;;;;;5096873;28;20626;-63
2021/04/13 14:36:08;;;;;;;1.27;1.17;;;;;;;;;;5100053;28;20220;-64
2021/04/13 14:38:34;;;;;;;2.20;1.13;;;;;;;;;;5095901;28;20192;-63
2021/04/13 14:41:01;;;;;;;2.17;1.20;;;;;;;;;;5095317;28;20253;-64
2021/04/13 14:43:28;;;;;;;2.40;1.00;;;;;;;;;;5095494;28;20203;-60
2021/04/13 14:45:55;;;;;;;2.35;1.20;;;;;;;;;;5095552;28;20224;-63
2021/04/13 14:48:21;;;;;;;3.10;1.02;;;;;;;;;;5095617;28;20281;-63
2021/04/13 14:50:50;;;;;;;2.53;1.48;;;;;;;;;;5094398;28;20196;-64
2021/04/13 14:53:18;;;;;;;1.52;1.35;;;;;;;;;;5095485;28;20196;-63
2021/04/13 14:55:46;;;;;;;1.40;0.80;;;;;;;;;;5095160;28;20239;-62
2021/04/13 14:58:14;;;;;;;4.05;1.50;;;;;;;;;;5094745;28;20196;-62
2021/04/13 15:00:41;;;;;;;1.00;0.85;;;;;;;;;;5095113;28;20205;-63
2021/04/13 15:03:08;;;;;;;2.33;1.13;;;;;;;;;;5094468;28;20254;-61
2021/04/13 15:05:35;;;;;;;2.60;0.75;;;;;;;;;;5094884;28;20220;-63
2021/04/13 15:08:03;;;;;;;1.98;1.00;;;;;;;;;;5095203;28;20201;-64
2021/04/13 15:10:31;;;;;;;1.52;0.98;;;;;;;;;;5094453;28;20261;-63
2021/04/13 15:12:58;;;;;;;3.00;0.90;;;;;;;;;;5095516;28;20265;-63